Historyczne dane pomiarowe

Dodano dane terminowe – wersja testowa.

Dane z okresu 1951-2019

Wersja bazy: 1.34 [2019-03-16, lista zmian], aktualizacja planowana na 2019-04-15

Dane meteo z obszaru Polski uzyskane na podstawie danych udostępnionych przez Instytut Meteorologii i Gospodarki Wodnej – Państwowy Instytut Badawczy.

 

Wybierz Datę:    

       

TemperaturaWilgotnośćWiatrCiśnienieOpadyŚniegCzas trwania zjawisk
 Stacja t tx tn tng RH VA  wxwx mslp ppp RRR   cm mm wxwxwxwxwxwxwx
1961-02-15 4.2 9.2 -0.5 -2.6 87.5- 5.0 2.7---- 0.0------------
1961-02-14 0.3 3.8 -1.2 -1.0 92.0- 5.3 1.3---- 0.0------------
1961-02-13 1.0 2.7 0.2 0.1 98.3- 8.0 1.7---- 0.0------------
1961-02-12 2.6 5.4 1.8 -0.3 96.0- 7.3 0.7---- 0.0------------
1961-02-11 2.5 4.2 -0.3 -0.6 87.5- 7.7 4.0---- 1.7------------
1961-02-10 0.4 1.0 0.2 0.7 90.5- 8.0 1.7---- 0.2------------
1961-02-09 0.7 2.8 -0.5 -0.2 92.5- 7.7 3.3---- 4.5------------
1961-02-08 1.3 3.7 0.6 -0.7 91.3- 7.0 3.0---- 0.7------------
1961-02-07 1.3 3.5 -1.4 -2.5 83.0- 5.3 3.3---- 0.4------------
1961-02-06 -2.3 0.2 -4.8 -5.2 79.5- 3.7 3.3---- 0.0------------
1961-02-05 -2.1 0.3 -4.7 -2.9 91.5- 6.7 1.3---- 0.4------------
1961-02-04 0.2 1.7 -0.3 -0.5 83.5- 7.7 5.0---- 0.0------------
1961-02-03 0.5 2.7 -0.7 -1.8 92.3- 4.0 2.3---- 0.0------------
1961-02-02 1.3 4.2 -0.3 0.0 87.3- 5.7 3.7---- 0.0------------
1961-02-01 2.0 4.5 0.2 1.0 93.3- 7.3 3.0---- 4.5------------
1961-01-31 2.4 4.7 1.4 0.9 97.3- 8.0 3.7---- 9.5------------
1961-01-30 2.4 4.2 -2.0 -4.7 81.8- 6.0 9.7---- 1.5-- 1---------
1961-01-29 -1.5 2.4-10.6-13.3 77.5- 3.0 5.3---- 0.0-- 1---------
1961-01-28 -5.4 -1.8-15.1-17.4 57.3- 1.3 4.0---- 0.0-- 1---------
1961-01-27-10.6 -5.2-17.1-16.6 60.8- 0.0 1.0---- 0.0-- 2---------
1961-01-26-15.4 -8.4-20.4-20.1 87.5- 0.0 0.0---- 0.0-- 2---------
1961-01-25-14.0 -4.9-16.2-15.7 85.3- 0.0 1.3---- 0.0-- 2---------
1961-01-24 -7.6 -5.2-14.0-15.1 89.3- 7.7 2.7---- 0.1-- 2---------
1961-01-23-10.4 -6.4-13.4-11.1 86.5- 4.0 2.3---- 0.0-- 2---------
1961-01-22 -8.8 -4.4-11.8-11.8 81.3- 4.7 1.0---- 0.0-- 3---------
1961-01-21 -7.8 -3.2 -9.6 -7.6 69.3- 5.3 3.0---- 0.0-- 3---------
1961-01-20 -3.7 -1.8 -6.2 -7.2 75.0- 8.0 0.3---- 0.0-- 3---------
1961-01-19 -5.6 -4.2-10.9-12.5 76.8- 7.3 0.7---- 0.0-- 3---------
1961-01-18 -9.9 -6.0-12.1-15.1 82.8- 0.3 0.7---- 0.0-- 3---------
1961-01-17 -7.7 -0.7 -9.5 -9.1 69.0- 0.0 3.7---- 0.0-- 3---------
1961-01-16 -0.9 1.1 -2.6 -2.1 91.5- 5.3 2.7---- 0.0-- 4---------
1961-01-15 -1.8 0.7 -2.8 -0.4 97.0- 8.0 4.3---- 0.0-- 4---------
1961-01-14 0.3 0.7 -0.5 0.0 98.0- 8.0 2.0---- 2.5-- 4---------
1961-01-13 -1.6 -0.2 -6.3 -3.3 75.0- 6.7 3.7---- 0.6-- 5---------
1961-01-12 -2.0 1.4 -3.3 -0.6 87.5- 8.0 5.7---- 1.3------------
1961-01-11 0.5 1.7 -1.7 -1.6 87.5- 7.0 3.7---- 1.0------------
1961-01-10 0.2 3.3 -0.6 -0.8 96.0- 5.0 1.3---- 0.0------------
1961-01-09 2.8 3.8 0.5 0.4 82.5- 8.0 4.3---- 0.0------------
1961-01-08 1.3 2.3 0.4 -0.5 92.0- 7.3 3.3---- 0.7------------
1961-01-07 1.1 2.7 -1.3 -2.5 80.8- 3.7 3.3---- 0.5------------
1961-01-06 1.2 3.7 0.4 -0.7 84.0- 2.3 4.3---- 0.0------------
1961-01-05 2.7 6.5 1.0 1.8 91.0- 8.0 1.7---- 5.4------------
1961-01-04 4.5 6.2 1.8 -0.5 82.0- 8.0 3.7---- 2.5------------
1961-01-03 1.6 3.6 -0.9 -1.9 87.3- 7.3 3.3---- 0.0------------
1961-01-02 -0.2 1.4 -1.3 -2.9 90.8- 8.0 1.3---- 0.0------------
1961-01-01 0.6 1.5 -1.0 -2.0 90.5- 8.0 2.3---- 0.0------------
473.5 ms

 

Źródłem pochodzenia danych jest Instytut Meteorologii i Gospodarki Wodnej – Państwowy Instytut Badawczy. Dane Instytutu Meteorologii i Gospodarki Wodnej – Państwowego Instytutu Badawczego zostały przetworzone.

Dane źródłowe można odnaleźć na stronie https://dane.imgw.pl